»·PEaware :: N4657 KSBA-KMOD

N4657 :: KSBA-KMOD

FLIGHT INFORMATION

Flight Status: Arrived
Operator: Privately registered:
United States
More flights under this callsign
Pilot: Daniel P. (20187)
Aircraft: PILATUS PC-12 EAGLE
(PC12)
More flights by this aircraft type
Origin: KSBA Santa Barbara Mun
United States
Destination: KMOD Modesto City-Co-Sham
United States
More flights between these airports :: More routes between these airports
Route: +FLW AVE V137 ROM V113 PXN KMOD
File this flight plan on PilotEdge
Remarks:
Altitude:
(Current/Filed)
16,500ft
Speed:
(Current/Filed)
200kts
Departed: 31-Aug-18 01:24 PM
Arrived: 31-Aug-18 02:31 PM
Distance/Time
Traveled:
200nm/1:06
Distance/Time
To Go:
Arrived

Flight Plot

Page will automatically refresh every two minutes.

Flight plan parsing failed; only flown route is shown


Map Options




Map Legend


Flown Route
Filed Route
Departure Airport
Arrival Airport
Navaid (VOR, NDB)
Fix

Horizontal Profiles

Position Reports

Time Latitude Longitude Heading Altitude Ground
Speed
31-Aug-18 12:48 34.422650 -119.835588 340 10ft 0kts
31-Aug-18 12:49 34.422650 -119.835588 340 10ft 0kts
31-Aug-18 12:50 34.422650 -119.835588 340 10ft 0kts
31-Aug-18 12:51 34.422650 -119.835588 340 10ft 0kts
31-Aug-18 12:52 34.422650 -119.835588 340 10ft 0kts
31-Aug-18 12:53 34.422650 -119.835588 340 10ft 0kts
31-Aug-18 12:54 34.422650 -119.835588 340 10ft 0kts
31-Aug-18 12:55 34.422650 -119.835588 340 10ft 0kts
31-Aug-18 12:56 34.422650 -119.835588 340 10ft 0kts
31-Aug-18 12:57 34.422650 -119.835588 340 10ft 0kts
31-Aug-18 12:58 34.422650 -119.835588 340 10ft 0kts
31-Aug-18 12:59 34.422650 -119.835588 340 10ft 0kts
31-Aug-18 13:00 34.422650 -119.835588 340 10ft 0kts
31-Aug-18 13:01 34.422650 -119.835588 340 10ft 0kts
31-Aug-18 13:02 34.422651 -119.835588 341 10ft 0kts
31-Aug-18 13:03 34.422651 -119.835588 341 10ft 0kts
31-Aug-18 13:04 34.422651 -119.835588 341 10ft 0kts
31-Aug-18 13:05 34.422651 -119.835588 341 10ft 0kts
31-Aug-18 13:06 34.422651 -119.835588 341 10ft 0kts
31-Aug-18 13:07 34.422651 -119.835588 341 10ft 0kts
31-Aug-18 13:08 34.422651 -119.835588 341 10ft 0kts
31-Aug-18 13:09 34.422651 -119.835588 341 10ft 0kts
31-Aug-18 13:10 34.422651 -119.835588 341 10ft 0kts
31-Aug-18 13:11 34.422651 -119.835588 341 10ft 0kts
31-Aug-18 13:12 34.422651 -119.835588 341 10ft 0kts
31-Aug-18 13:13 34.422651 -119.835588 341 10ft 0kts
31-Aug-18 13:14 34.422651 -119.835588 341 10ft 0kts
31-Aug-18 13:15 34.422651 -119.835588 341 10ft 0kts
31-Aug-18 13:16 34.422651 -119.835588 341 10ft 0kts
31-Aug-18 13:17 34.422651 -119.835588 341 10ft 0kts
31-Aug-18 13:18 34.422651 -119.835588 341 10ft 0kts
31-Aug-18 13:19 34.423206 -119.837346 356 12ft 10kts
31-Aug-18 13:20 34.426336 -119.838265 358 11ft 7kts
31-Aug-18 13:21 34.426758 -119.835349 88 10ft 11kts
31-Aug-18 13:22 34.427079 -119.834615 357 10ft 0kts
31-Aug-18 13:23 34.427079 -119.834615 357 10ft 0kts
31-Aug-18 13:24 34.427727 -119.834788 321 10ft 8kts
31-Aug-18 13:25 34.426253 -119.868147 265 539ft 162kts
31-Aug-18 13:26 34.420005 -119.931486 254 1383ft 217kts
31-Aug-18 13:27 34.445028 -119.995815 323 1431ft 226kts
31-Aug-18 13:28 34.493530 -119.995198 33 3094ft 188kts
31-Aug-18 13:29 34.535063 -119.968376 10 5334ft 172kts
31-Aug-18 13:30 34.583222 -119.956208 3 7202ft 183kts
31-Aug-18 13:31 34.635417 -119.946576 3 8783ft 201kts
31-Aug-18 13:32 34.692503 -119.936446 3 10064ft 214kts
31-Aug-18 13:33 34.752749 -119.925824 3 11166ft 222kts
31-Aug-18 13:34 34.814185 -119.915015 3 12297ft 224kts
31-Aug-18 13:36 34.875653 -119.904181 2 13414ft 224kts
31-Aug-18 13:37 34.937144 -119.893384 3 14521ft 223kts
31-Aug-18 13:38 34.997221 -119.882766 2 15563ft 216kts
31-Aug-18 13:39 35.056698 -119.872305 2 16383ft 220kts
31-Aug-18 13:40 35.117435 -119.870863 346 16470ft 235kts
31-Aug-18 13:41 35.162278 -119.879893 347 16480ft 241kts
31-Aug-18 13:42 35.228607 -119.893305 347 15958ft 246kts
31-Aug-18 13:43 35.295560 -119.906941 347 15048ft 255kts
31-Aug-18 13:44 35.366827 -119.921451 348 13814ft 260kts
31-Aug-18 13:45 35.434215 -119.935170 348 13797ft 237kts
31-Aug-18 13:46 35.498102 -119.948276 348 13750ft 233kts
31-Aug-18 13:46 35.544788 -119.957847 348 13667ft 232kts
31-Aug-18 13:48 35.619019 -119.973077 348 13546ft 232kts
31-Aug-18 13:48 35.663719 -120.003419 314 13484ft 230kts
31-Aug-18 13:50 35.714322 -120.071856 312 13242ft 234kts
31-Aug-18 13:50 35.750594 -120.121889 312 12992ft 237kts
31-Aug-18 13:51 35.794408 -120.182514 312 12700ft 238kts
31-Aug-18 13:53 35.845714 -120.253662 312 12427ft 236kts
31-Aug-18 13:53 35.881485 -120.303378 312 12421ft 231kts
31-Aug-18 13:55 35.931021 -120.372325 312 12419ft 230kts
31-Aug-18 13:55 35.966250 -120.421440 312 12420ft 229kts
31-Aug-18 13:56 36.008507 -120.480447 312 12424ft 229kts
31-Aug-18 13:57 36.050578 -120.539297 312 12426ft 229kts
31-Aug-18 13:58 36.093203 -120.599005 312 12167ft 237kts
31-Aug-18 13:59 36.136796 -120.659059 323 11767ft 241kts
31-Aug-18 14:00 36.201907 -120.676992 348 11388ft 241kts
31-Aug-18 14:01 36.268065 -120.690207 349 10998ft 241kts
31-Aug-18 14:02 36.332588 -120.702886 349 10595ft 223kts
31-Aug-18 14:03 36.392140 -120.714678 348 10195ft 213kts
31-Aug-18 14:04 36.450173 -120.726177 348 9798ft 210kts
31-Aug-18 14:05 36.508171 -120.737666 348 9401ft 212kts
31-Aug-18 14:06 36.566091 -120.749141 348 9003ft 212kts
31-Aug-18 14:07 36.624493 -120.760750 348 8603ft 213kts
31-Aug-18 14:08 36.683157 -120.772439 348 8205ft 215kts
31-Aug-18 14:09 36.741830 -120.783893 348 7803ft 212kts
31-Aug-18 14:10 36.799480 -120.794871 348 7399ft 202kts
31-Aug-18 14:11 36.851838 -120.804854 348 6986ft 183kts
31-Aug-18 14:12 36.901159 -120.814340 348 6582ft 177kts
31-Aug-18 14:13 36.949508 -120.823635 348 6181ft 175kts
31-Aug-18 14:14 36.997714 -120.832921 348 5781ft 175kts
31-Aug-18 14:15 37.045959 -120.842207 348 5382ft 176kts
31-Aug-18 14:16 37.094207 -120.851247 356 4984ft 177kts
31-Aug-18 14:17 37.142901 -120.849308 4 4543ft 181kts
31-Aug-18 14:18 37.192382 -120.830875 18 3885ft 188kts
31-Aug-18 14:19 37.240157 -120.804527 22 3266ft 188kts
31-Aug-18 14:20 37.284460 -120.770157 33 2659ft 187kts
31-Aug-18 14:21 37.325668 -120.731573 32 2062ft 184kts
31-Aug-18 14:22 37.366049 -120.696099 21 1827ft 161kts
31-Aug-18 14:23 37.405132 -120.676197 18 1827ft 145kts
31-Aug-18 14:24 37.441604 -120.659002 353 1832ft 134kts
31-Aug-18 14:25 37.471522 -120.682856 314 1825ft 130kts
31-Aug-18 14:26 37.494759 -120.716885 301 1821ft 129kts
31-Aug-18 14:27 37.517077 -120.752591 306 1822ft 144kts
31-Aug-18 14:28 37.542258 -120.798347 304 1811ft 168kts
31-Aug-18 14:29 37.569126 -120.847937 304 1805ft 175kts
31-Aug-18 14:30 37.595093 -120.896895 303 1471ft 156kts
31-Aug-18 14:31 37.614348 -120.931808 307 479ft 81kts
31-Aug-18 14:32 37.624227 -120.949637 352 86ft 8kts
31-Aug-18 14:33 37.624664 -120.949336 32 88ft 0kts
31-Aug-18 14:34 37.625723 -120.950977 304 88ft 12kts
31-Aug-18 14:35 37.627512 -120.953478 55 91ft 7kts
31-Aug-18 14:36 37.627463 -120.953078 123 91ft 0kts

Navigation Log

Ident Type
Flight plan parsing failed, navigation log unavailable